Time;durP1;ratioP1;P1;durP2;ratioP2;P2;SDS_P1;SDS_P2;PMS_P1;PMS_P2;Temp;Humidity;BMP_temperature;BMP_pressure;BME280_temperature;BME280_humidity;BME280_pressure;Samples;Min_cycle;Max_cycle;Signal;HPM_P1;HPM_P2
2023/07/31 00:01:33;;;;;;;1.90;1.53;;;;;;;;;;5079630;28;20659;-65
2023/07/31 00:04:00;;;;;;;2.23;1.47;;;;;;;;;;5069650;28;20476;-65
2023/07/31 00:06:27;;;;;;;2.70;1.43;;;;;;;;;;5078647;28;20492;-65
2023/07/31 00:08:54;;;;;;;1.33;1.17;;;;;;;;;;5079644;28;20444;-65
2023/07/31 00:11:20;;;;;;;2.50;1.30;;;;;;;;;;5080539;28;20452;-65
2023/07/31 00:13:47;;;;;;;1.10;1.00;;;;;;;;;;5079812;28;20822;-65
2023/07/31 00:16:13;;;;;;;2.57;1.67;;;;;;;;;;5079042;28;20878;-66
2023/07/31 00:18:39;;;;;;;2.30;1.67;;;;;;;;;;5079011;28;20479;-65
2023/07/31 00:21:06;;;;;;;1.60;1.50;;;;;;;;;;5071327;28;20448;-65
2023/07/31 00:23:34;;;;;;;1.93;1.83;;;;;;;;;;5076259;28;20535;-65
2023/07/31 00:26:00;;;;;;;2.30;1.80;;;;;;;;;;5078907;28;20586;-65
2023/07/31 00:28:27;;;;;;;3.10;2.10;;;;;;;;;;5068701;28;20969;-66
2023/07/31 00:30:53;;;;;;;2.27;1.90;;;;;;;;;;5078612;28;20456;-66
2023/07/31 00:33:19;;;;;;;2.83;2.30;;;;;;;;;;5071609;28;20483;-65
2023/07/31 00:35:46;;;;;;;2.80;2.50;;;;;;;;;;5075701;28;20499;-65
2023/07/31 00:38:12;;;;;;;2.77;2.57;;;;;;;;;;5077498;28;20502;-65
2023/07/31 00:40:40;;;;;;;2.97;2.67;;;;;;;;;;5078518;28;20547;-65
2023/07/31 00:43:06;;;;;;;2.70;2.50;;;;;;;;;;5075040;28;20498;-66
2023/07/31 00:45:33;;;;;;;3.10;2.80;;;;;;;;;;5078383;28;20482;-65
2023/07/31 00:48:00;;;;;;;4.00;2.90;;;;;;;;;;5078497;28;20494;-66
2023/07/31 00:50:26;;;;;;;3.50;3.00;;;;;;;;;;5078872;28;20532;-66
2023/07/31 00:52:52;;;;;;;3.30;2.70;;;;;;;;;;5078861;28;20482;-66
2023/07/31 00:55:19;;;;;;;3.00;2.70;;;;;;;;;;5075802;28;20945;-67
2023/07/31 00:57:47;;;;;;;3.30;3.00;;;;;;;;;;5077807;28;20925;-66
2023/07/31 01:00:13;;;;;;;4.20;3.10;;;;;;;;;;5078218;28;20484;-66
2023/07/31 01:02:40;;;;;;;3.10;2.80;;;;;;;;;;5077471;28;20483;-66
2023/07/31 01:05:06;;;;;;;3.03;2.83;;;;;;;;;;5078255;28;20444;-67
2023/07/31 01:07:43;;;;;;;3.43;3.13;;;;;;;;;;5077774;28;20518;-65
2023/07/31 01:10:12;;;;;;;3.10;2.87;;;;;;;;;;5078164;28;20531;-65
2023/07/31 01:12:39;;;;;;;3.30;3.10;;;;;;;;;;5077985;28;20953;-65
2023/07/31 01:15:10;;;;;;;3.50;3.20;;;;;;;;;;5077514;28;20459;-66
2023/07/31 01:17:37;;;;;;;5.30;3.13;;;;;;;;;;5077053;28;20459;-66
2023/07/31 01:20:05;;;;;;;3.20;3.00;;;;;;;;;;5077850;28;20479;-66
2023/07/31 01:22:36;;;;;;;5.17;3.90;;;;;;;;;;5078129;28;20451;-66
2023/07/31 01:25:10;;;;;;;3.93;3.00;;;;;;;;;;5070748;28;20502;-66
2023/07/31 01:27:41;;;;;;;4.73;3.20;;;;;;;;;;5077746;28;20549;-65
2023/07/31 01:30:14;;;;;;;3.37;3.07;;;;;;;;;;5069012;28;20487;-66
2023/07/31 01:32:41;;;;;;;3.30;3.00;;;;;;;;;;5076687;28;20464;-65
2023/07/31 01:35:08;;;;;;;3.03;2.77;;;;;;;;;;5080615;28;20516;-66
2023/07/31 01:37:34;;;;;;;2.93;2.67;;;;;;;;;;5080429;28;20815;-66
2023/07/31 01:40:00;;;;;;;3.23;2.80;;;;;;;;;;5081702;28;20484;-65
2023/07/31 01:42:27;;;;;;;4.73;3.20;;;;;;;;;;5081677;28;20479;-66
2023/07/31 01:44:55;;;;;;;3.90;3.10;;;;;;;;;;5081665;28;20478;-65
2023/07/31 01:47:21;;;;;;;2.47;2.10;;;;;;;;;;5077884;28;20507;-66
2023/07/31 01:49:47;;;;;;;3.37;2.73;;;;;;;;;;5081847;28;20475;-66
2023/07/31 01:52:14;;;;;;;3.10;2.30;;;;;;;;;;5081427;28;20563;-66
2023/07/31 01:54:40;;;;;;;2.80;2.23;;;;;;;;;;5081069;28;20523;-66
2023/07/31 01:57:07;;;;;;;2.97;2.47;;;;;;;;;;5081841;28;20483;-65
2023/07/31 01:59:33;;;;;;;3.00;1.70;;;;;;;;;;5078027;28;20535;-66
2023/07/31 02:02:01;;;;;;;2.60;2.17;;;;;;;;;;5081114;28;20488;-66
2023/07/31 02:04:27;;;;;;;2.30;2.03;;;;;;;;;;5081213;28;20480;-65
2023/07/31 02:06:54;;;;;;;3.60;2.27;;;;;;;;;;5080793;28;20523;-66
2023/07/31 02:09:20;;;;;;;2.67;2.23;;;;;;;;;;5081556;28;20515;-66
2023/07/31 02:11:47;;;;;;;3.03;1.60;;;;;;;;;;5081445;28;20480;-66
2023/07/31 02:14:13;;;;;;;1.93;1.50;;;;;;;;;;5081713;28;20484;-66
2023/07/31 02:16:39;;;;;;;2.70;2.10;;;;;;;;;;5081758;28;20524;-66
2023/07/31 02:19:07;;;;;;;2.30;1.60;;;;;;;;;;5081682;28;20478;-67
2023/07/31 02:21:33;;;;;;;1.93;1.60;;;;;;;;;;5078222;28;20463;-67
2023/07/31 02:24:00;;;;;;;2.47;1.80;;;;;;;;;;5070420;28;20479;-66
2023/07/31 02:26:26;;;;;;;2.50;1.70;;;;;;;;;;5068539;28;20515;-67
2023/07/31 02:28:53;;;;;;;2.90;1.37;;;;;;;;;;5075909;28;20480;-66
2023/07/31 02:31:19;;;;;;;1.70;1.43;;;;;;;;;;5077702;28;20506;-66
2023/07/31 02:33:45;;;;;;;2.20;1.00;;;;;;;;;;5080350;28;20447;-66
2023/07/31 02:36:14;;;;;;;1.57;1.10;;;;;;;;;;5079834;28;20483;-66
2023/07/31 02:38:40;;;;;;;1.60;1.30;;;;;;;;;;5081010;28;20483;-66
2023/07/31 02:41:07;;;;;;;1.70;0.97;;;;;;;;;;5080831;28;20956;-67
2023/07/31 02:43:33;;;;;;;1.57;1.20;;;;;;;;;;5080626;28;20514;-66
2023/07/31 02:46:00;;;;;;;1.30;1.00;;;;;;;;;;5076460;28;20492;-66
2023/07/31 02:48:26;;;;;;;2.40;1.37;;;;;;;;;;5075865;28;20512;-66
2023/07/31 02:50:53;;;;;;;1.70;1.07;;;;;;;;;;5074627;28;20543;-66
2023/07/31 02:53:21;;;;;;;1.60;1.20;;;;;;;;;;5079984;28;20454;-66
2023/07/31 02:55:48;;;;;;;1.43;1.20;;;;;;;;;;5080336;28;20528;-66
2023/07/31 02:58:14;;;;;;;1.87;1.00;;;;;;;;;;5078912;28;20491;-66
2023/07/31 03:00:42;;;;;;;1.20;1.10;;;;;;;;;;5078048;28;21048;-64
2023/07/31 03:03:09;;;;;;;1.70;0.90;;;;;;;;;;5079865;28;20460;-64
2023/07/31 03:05:35;;;;;;;1.27;0.90;;;;;;;;;;5080207;28;20511;-64
2023/07/31 03:08:02;;;;;;;1.23;0.70;;;;;;;;;;5079505;28;20511;-63
2023/07/31 03:10:29;;;;;;;1.00;0.87;;;;;;;;;;5081095;28;20487;-63
2023/07/31 03:12:56;;;;;;;1.53;1.10;;;;;;;;;;5078882;28;20531;-65
2023/07/31 03:15:22;;;;;;;1.57;1.17;;;;;;;;;;5071382;28;20535;-63
2023/07/31 03:17:49;;;;;;;1.40;1.30;;;;;;;;;;5078047;28;20464;-63
2023/07/31 03:20:15;;;;;;;2.00;1.80;;;;;;;;;;5080376;28;20680;-64
2023/07/31 03:22:41;;;;;;;5.30;3.50;;;;;;;;;;5078360;28;20487;-63
2023/07/31 03:25:09;;;;;;;5.33;3.43;;;;;;;;;;5077239;28;21020;-63
2023/07/31 03:27:37;;;;;;;5.27;4.77;;;;;;;;;;5069804;28;20488;-64
2023/07/31 03:30:04;;;;;;;6.47;5.80;;;;;;;;;;5074487;28;20523;-66
2023/07/31 03:32:30;;;;;;;8.20;7.40;;;;;;;;;;5079726;28;20539;-66
2023/07/31 03:34:56;;;;;;;11.47;10.37;;;;;;;;;;5079397;28;20949;-66
2023/07/31 03:37:23;;;;;;;15.30;9.83;;;;;;;;;;5074920;28;20543;-66
2023/07/31 03:39:49;;;;;;;13.53;11.17;;;;;;;;;;5075271;28;20480;-65
2023/07/31 03:42:16;;;;;;;14.17;11.60;;;;;;;;;;5078965;28;20908;-66
2023/07/31 03:44:43;;;;;;;15.83;12.73;;;;;;;;;;5079511;28;20515;-66
2023/07/31 03:47:10;;;;;;;15.20;12.53;;;;;;;;;;5079174;28;20490;-66
2023/07/31 03:49:36;;;;;;;17.37;13.27;;;;;;;;;;5072252;28;20527;-66
2023/07/31 03:52:02;;;;;;;16.70;13.60;;;;;;;;;;5075254;28;20467;-67
2023/07/31 03:54:29;;;;;;;16.47;14.10;;;;;;;;;;5079680;28;20483;-67
2023/07/31 03:56:55;;;;;;;19.23;14.50;;;;;;;;;;5077696;28;20461;-67
2023/07/31 03:59:22;;;;;;;26.13;15.83;;;;;;;;;;5080043;28;20449;-67
2023/07/31 04:01:49;;;;;;;24.60;14.40;;;;;;;;;;5077632;28;20463;-67
2023/07/31 04:04:16;;;;;;;22.40;15.27;;;;;;;;;;5079503;28;20516;-67
2023/07/31 04:06:42;;;;;;;18.90;15.60;;;;;;;;;;5079039;28;20519;-67
2023/07/31 04:09:08;;;;;;;23.00;16.20;;;;;;;;;;5079209;28;20472;-67
2023/07/31 04:11:35;;;;;;;19.13;15.67;;;;;;;;;;5079201;28;20515;-67
2023/07/31 04:14:01;;;;;;;22.50;15.40;;;;;;;;;;5077263;28;20455;-66
2023/07/31 04:16:27;;;;;;;20.73;15.83;;;;;;;;;;5076435;28;20543;-66
2023/07/31 04:18:55;;;;;;;27.80;16.60;;;;;;;;;;5075173;28;20492;-66
2023/07/31 04:21:21;;;;;;;22.50;17.13;;;;;;;;;;5076994;28;20716;-66
2023/07/31 04:23:48;;;;;;;20.10;16.20;;;;;;;;;;5079039;28;20567;-66
2023/07/31 04:26:14;;;;;;;24.40;17.20;;;;;;;;;;5078820;28;20492;-66
2023/07/31 04:28:41;;;;;;;19.47;15.47;;;;;;;;;;5077878;28;20539;-66
2023/07/31 04:31:07;;;;;;;23.00;15.30;;;;;;;;;;5074740;28;20769;-67
2023/07/31 04:33:33;;;;;;;19.77;15.33;;;;;;;;;;5078330;28;20471;-66
2023/07/31 04:36:01;;;;;;;20.13;15.47;;;;;;;;;;5078422;28;20444;-66
2023/07/31 04:38:27;;;;;;;24.93;16.80;;;;;;;;;;5078296;28;20570;-66
2023/07/31 04:40:54;;;;;;;20.63;17.30;;;;;;;;;;5078925;28;21024;-66
2023/07/31 04:43:20;;;;;;;22.80;16.40;;;;;;;;;;5072239;28;20511;-66
2023/07/31 04:45:47;;;;;;;22.27;16.53;;;;;;;;;;5077314;28;20751;-66
2023/07/31 04:48:14;;;;;;;22.30;16.27;;;;;;;;;;5070488;28;20487;-66
2023/07/31 04:50:40;;;;;;;24.60;16.80;;;;;;;;;;5078013;28;20480;-66
2023/07/31 04:53:08;;;;;;;18.20;15.73;;;;;;;;;;5082598;28;20475;-66
2023/07/31 04:55:34;;;;;;;23.73;17.27;;;;;;;;;;5076065;28;20516;-67
2023/07/31 04:58:01;;;;;;;21.07;15.37;;;;;;;;;;5073387;28;20630;-67
2023/07/31 05:00:27;;;;;;;21.50;14.47;;;;;;;;;;5077777;28;20510;-66
2023/07/31 05:02:53;;;;;;;22.30;14.33;;;;;;;;;;5080868;28;20495;-66
2023/07/31 05:05:20;;;;;;;19.17;13.73;;;;;;;;;;5077919;28;20663;-66
2023/07/31 05:07:46;;;;;;;19.97;12.50;;;;;;;;;;5076496;28;20496;-66
2023/07/31 05:10:14;;;;;;;18.63;13.13;;;;;;;;;;5076379;28;20547;-66
2023/07/31 05:12:40;;;;;;;21.97;13.80;;;;;;;;;;5077681;28;20519;-66
2023/07/31 05:15:07;;;;;;;24.50;11.90;;;;;;;;;;5077791;28;20495;-66
2023/07/31 05:17:33;;;;;;;20.17;12.20;;;;;;;;;;5076636;28;20463;-66
2023/07/31 05:20:00;;;;;;;17.33;11.60;;;;;;;;;;5078247;28;20495;-66
2023/07/31 05:22:26;;;;;;;19.47;11.83;;;;;;;;;;5077421;28;20456;-65
2023/07/31 05:24:54;;;;;;;19.77;11.10;;;;;;;;;;5074880;28;20463;-65
2023/07/31 05:27:21;;;;;;;15.27;11.03;;;;;;;;;;5075996;28;20928;-66
2023/07/31 05:29:48;;;;;;;16.80;9.90;;;;;;;;;;5076495;28;20487;-66
2023/07/31 05:32:14;;;;;;;18.63;10.20;;;;;;;;;;5074718;28;20543;-66
2023/07/31 05:34:40;;;;;;;17.20;9.93;;;;;;;;;;5075031;28;20490;-65
2023/07/31 05:37:07;;;;;;;16.20;9.40;;;;;;;;;;5076041;28;20483;-65
2023/07/31 05:39:33;;;;;;;20.63;9.27;;;;;;;;;;5076570;28;20523;-66
2023/07/31 05:41:59;;;;;;;21.80;9.00;;;;;;;;;;5077830;28;20694;-66
2023/07/31 05:44:27;;;;;;;15.20;8.70;;;;;;;;;;5072650;28;20878;-65
2023/07/31 05:46:53;;;;;;;15.13;8.90;;;;;;;;;;5074085;28;20491;-65
2023/07/31 05:49:20;;;;;;;19.43;8.63;;;;;;;;;;5076780;28;20507;-65
2023/07/31 05:51:46;;;;;;;14.60;8.27;;;;;;;;;;5072119;28;20523;-65
2023/07/31 05:54:13;;;;;;;16.10;7.40;;;;;;;;;;5077558;28;20531;-65
2023/07/31 05:56:39;;;;;;;12.93;8.07;;;;;;;;;;5077424;28;20498;-65
2023/07/31 05:59:06;;;;;;;15.73;8.40;;;;;;;;;;5071028;28;20513;-65
2023/07/31 06:01:33;;;;;;;17.47;8.27;;;;;;;;;;5077258;28;20451;-65
2023/07/31 06:04:00;;;;;;;15.70;7.70;;;;;;;;;;5074356;28;21055;-65
2023/07/31 06:06:26;;;;;;;13.50;8.17;;;;;;;;;;5069206;28;20492;-66
2023/07/31 06:08:52;;;;;;;16.30;7.87;;;;;;;;;;5076686;28;20515;-65
2023/07/31 06:11:19;;;;;;;20.90;8.77;;;;;;;;;;5076234;28;20935;-65
2023/07/31 06:13:47;;;;;;;17.20;7.77;;;;;;;;;;5077425;28;20460;-65
2023/07/31 06:16:14;;;;;;;12.50;7.80;;;;;;;;;;5072563;28;20982;-65
2023/07/31 06:18:42;;;;;;;18.80;7.60;;;;;;;;;;5072874;28;20467;-66
2023/07/31 06:21:08;;;;;;;13.43;8.67;;;;;;;;;;5079359;28;21015;-66
2023/07/31 06:23:34;;;;;;;13.37;7.00;;;;;;;;;;5075794;28;20527;-65
2023/07/31 06:26:01;;;;;;;19.90;8.50;;;;;;;;;;5079701;28;20470;-65
2023/07/31 06:28:28;;;;;;;18.30;8.23;;;;;;;;;;5080473;28;20578;-65
2023/07/31 06:30:55;;;;;;;20.20;8.17;;;;;;;;;;5079193;28;20447;-66
2023/07/31 06:33:21;;;;;;;16.87;8.43;;;;;;;;;;5077809;28;20540;-64
2023/07/31 06:35:49;;;;;;;17.67;7.83;;;;;;;;;;5075649;28;20472;-65
2023/07/31 06:38:15;;;;;;;20.00;7.83;;;;;;;;;;5077410;28;20487;-64
2023/07/31 06:40:42;;;;;;;22.60;8.77;;;;;;;;;;5068695;28;20483;-65
2023/07/31 06:43:08;;;;;;;13.30;7.63;;;;;;;;;;5050877;28;21037;-65
2023/07/31 06:45:35;;;;;;;16.67;6.60;;;;;;;;;;5056451;28;21099;-64
2023/07/31 06:48:02;;;;;;;12.77;7.60;;;;;;;;;;5077819;28;20570;-65
2023/07/31 06:50:28;;;;;;;14.80;6.63;;;;;;;;;;5075664;28;20540;-65
2023/07/31 06:52:56;;;;;;;11.93;7.03;;;;;;;;;;5078798;28;20455;-64
2023/07/31 06:55:22;;;;;;;11.73;6.30;;;;;;;;;;5080509;28;20464;-65
2023/07/31 06:57:49;;;;;;;17.43;7.00;;;;;;;;;;5078659;28;20486;-65
2023/07/31 07:00:16;;;;;;;9.43;5.97;;;;;;;;;;5079749;28;20460;-66
2023/07/31 07:02:42;;;;;;;16.23;7.97;;;;;;;;;;5075846;28;20544;-69
2023/07/31 07:05:09;;;;;;;13.97;6.70;;;;;;;;;;5073173;28;20452;-68
2023/07/31 07:07:36;;;;;;;13.90;7.17;;;;;;;;;;5078594;28;20455;-69
2023/07/31 07:10:05;;;;;;;16.40;6.53;;;;;;;;;;5078978;28;20539;-69
2023/07/31 07:12:31;;;;;;;11.00;6.93;;;;;;;;;;5074238;28;20743;-68
2023/07/31 07:14:58;;;;;;;14.13;7.20;;;;;;;;;;5074052;28;20888;-69
2023/07/31 07:17:24;;;;;;;11.20;6.83;;;;;;;;;;5079195;28;20519;-70
2023/07/31 07:19:51;;;;;;;12.60;8.07;;;;;;;;;;5081816;28;20463;-69
2023/07/31 07:22:17;;;;;;;11.27;7.03;;;;;;;;;;5078162;28;20460;-69
2023/07/31 07:24:44;;;;;;;11.83;7.70;;;;;;;;;;5077977;28;20474;-68
2023/07/31 07:27:12;;;;;;;12.27;7.10;;;;;;;;;;5079467;28;20490;-68
2023/07/31 07:29:38;;;;;;;11.87;7.47;;;;;;;;;;5075760;28;20511;-69
2023/07/31 07:32:05;;;;;;;11.60;8.17;;;;;;;;;;5075864;28;20486;-68
2023/07/31 07:34:32;;;;;;;11.40;7.60;;;;;;;;;;5079215;28;20877;-68
2023/07/31 07:36:58;;;;;;;10.13;7.50;;;;;;;;;;5075712;28;20458;-68
2023/07/31 07:39:25;;;;;;;17.53;7.50;;;;;;;;;;5074358;28;20472;-68
2023/07/31 07:41:53;;;;;;;10.60;7.20;;;;;;;;;;5076114;28;20935;-68
2023/07/31 07:44:21;;;;;;;11.47;7.37;;;;;;;;;;5075178;28;20466;-69
2023/07/31 07:46:47;;;;;;;13.00;6.60;;;;;;;;;;5076904;28;20478;-68
2023/07/31 07:49:14;;;;;;;14.63;8.83;;;;;;;;;;5075435;28;20534;-68
2023/07/31 07:51:40;;;;;;;10.23;7.60;;;;;;;;;;5079332;28;20489;-69
2023/07/31 07:54:07;;;;;;;15.07;8.47;;;;;;;;;;5078778;28;20486;-69
2023/07/31 07:56:36;;;;;;;12.13;7.30;;;;;;;;;;5079719;28;20475;-69
2023/07/31 07:59:02;;;;;;;15.77;7.90;;;;;;;;;;5079305;28;20473;-69
2023/07/31 08:01:30;;;;;;;14.17;7.60;;;;;;;;;;5078775;28;20506;-69
2023/07/31 08:03:56;;;;;;;10.07;6.70;;;;;;;;;;5078623;28;20571;-69
2023/07/31 08:06:23;;;;;;;7.73;6.27;;;;;;;;;;5076994;28;20517;-69
2023/07/31 08:08:49;;;;;;;10.23;6.90;;;;;;;;;;5072399;28;20504;-69
2023/07/31 08:11:16;;;;;;;7.80;5.57;;;;;;;;;;5079232;28;20442;-69
2023/07/31 08:13:42;;;;;;;4.83;4.27;;;;;;;;;;5078848;28;20531;-69
2023/07/31 08:16:09;;;;;;;4.70;4.10;;;;;;;;;;5078814;28;20512;-69
2023/07/31 08:18:37;;;;;;;6.23;4.63;;;;;;;;;;5079138;28;20659;-69
2023/07/31 08:21:03;;;;;;;5.80;4.20;;;;;;;;;;5078968;28;20524;-69
2023/07/31 08:23:30;;;;;;;5.57;3.70;;;;;;;;;;5076368;28;20528;-69
2023/07/31 08:25:57;;;;;;;7.77;4.17;;;;;;;;;;5073502;28;21019;-69
2023/07/31 08:28:23;;;;;;;6.00;4.00;;;;;;;;;;5077416;28;20906;-69
2023/07/31 08:30:50;;;;;;;4.70;4.20;;;;;;;;;;5071726;28;20490;-68
2023/07/31 08:33:17;;;;;;;6.53;4.10;;;;;;;;;;5075739;28;20456;-69
2023/07/31 08:35:44;;;;;;;5.27;4.50;;;;;;;;;;5081203;28;20497;-68
2023/07/31 08:38:11;;;;;;;8.67;5.23;;;;;;;;;;5078040;28;20507;-69
2023/07/31 08:40:38;;;;;;;6.63;5.23;;;;;;;;;;5078124;28;20874;-69
2023/07/31 08:43:05;;;;;;;6.30;5.40;;;;;;;;;;5077319;28;20462;-69
2023/07/31 08:45:31;;;;;;;6.03;5.40;;;;;;;;;;5076307;28;20459;-68
2023/07/31 08:47:58;;;;;;;6.17;4.80;;;;;;;;;;5074811;28;20542;-69
2023/07/31 08:50:24;;;;;;;6.30;5.13;;;;;;;;;;5078163;28;20483;-69
2023/07/31 08:52:53;;;;;;;5.77;5.17;;;;;;;;;;5077700;28;20539;-69
2023/07/31 08:55:23;;;;;;;10.33;5.00;;;;;;;;;;5077876;28;20923;-69
2023/07/31 08:57:51;;;;;;;6.57;5.67;;;;;;;;;;5077469;28;20482;-69
2023/07/31 09:00:17;;;;;;;9.73;5.77;;;;;;;;;;5069771;28;20492;-69
2023/07/31 09:02:46;;;;;;;11.33;5.90;;;;;;;;;;5075295;28;20525;-69
2023/07/31 09:05:13;;;;;;;5.83;5.23;;;;;;;;;;5075511;28;20441;-70
2023/07/31 09:07:40;;;;;;;5.70;5.10;;;;;;;;;;5072028;28;20487;-69
2023/07/31 09:10:08;;;;;;;7.40;4.90;;;;;;;;;;5077439;28;20841;-69
2023/07/31 09:12:35;;;;;;;7.50;5.03;;;;;;;;;;5077119;28;20498;-70
2023/07/31 09:15:02;;;;;;;8.23;4.90;;;;;;;;;;5074075;28;20463;-69
2023/07/31 09:17:31;;;;;;;7.50;5.57;;;;;;;;;;5077064;28;20548;-69
2023/07/31 09:19:58;;;;;;;6.10;4.30;;;;;;;;;;5077338;28;20460;-69
2023/07/31 09:22:33;;;;;;;6.00;5.20;;;;;;;;;;5076698;28;20448;-69
2023/07/31 09:25:05;;;;;;;4.50;4.10;;;;;;;;;;5076713;28;20455;-69
2023/07/31 09:27:46;;;;;;;4.33;3.93;;;;;;;;;;5077352;28;20475;-69
2023/07/31 09:30:12;;;;;;;6.10;4.70;;;;;;;;;;5074975;28;20523;-69
2023/07/31 09:32:43;;;;;;;7.53;4.80;;;;;;;;;;5076957;28;20574;-69
2023/07/31 09:35:27;;;;;;;5.67;5.10;;;;;;;;;;5068828;28;20444;-69
2023/07/31 09:37:55;;;;;;;4.67;4.20;;;;;;;;;;5076214;28;20515;-69
2023/07/31 09:40:28;;;;;;;5.90;4.33;;;;;;;;;;5077086;28;20476;-69
2023/07/31 09:42:56;;;;;;;6.90;4.70;;;;;;;;;;5076147;28;20474;-69
2023/07/31 09:45:23;;;;;;;6.03;4.23;;;;;;;;;;5076187;28;20463;-69
2023/07/31 09:47:49;;;;;;;5.83;4.80;;;;;;;;;;5076302;28;20468;-69
2023/07/31 09:50:16;;;;;;;4.67;4.17;;;;;;;;;;5072022;28;20957;-70
2023/07/31 09:52:42;;;;;;;7.77;3.80;;;;;;;;;;5077287;28;20996;-70
2023/07/31 09:55:09;;;;;;;4.53;4.00;;;;;;;;;;5079179;28;20459;-69
2023/07/31 09:57:37;;;;;;;4.67;3.90;;;;;;;;;;5080577;28;20468;-70
2023/07/31 10:00:05;;;;;;;5.23;3.60;;;;;;;;;;5079377;28;21008;-69
2023/07/31 10:02:32;;;;;;;5.07;4.20;;;;;;;;;;5075660;28;20459;-69
2023/07/31 10:05:02;;;;;;;8.10;4.63;;;;;;;;;;5080475;28;20649;-69
2023/07/31 10:07:30;;;;;;;4.30;3.70;;;;;;;;;;5074760;28;21005;-70
2023/07/31 10:09:57;;;;;;;4.80;3.70;;;;;;;;;;5078588;28;20461;-70
2023/07/31 10:12:26;;;;;;;6.97;4.47;;;;;;;;;;5081293;28;20220;-70
2023/07/31 10:14:53;;;;;;;4.57;3.73;;;;;;;;;;5072762;28;20872;-70
2023/07/31 10:17:22;;;;;;;3.40;3.03;;;;;;;;;;5080779;28;20452;-70
2023/07/31 10:19:49;;;;;;;3.00;2.30;;;;;;;;;;5081339;28;20455;-70
2023/07/31 10:22:15;;;;;;;3.80;3.40;;;;;;;;;;5077685;28;20539;-70
2023/07/31 10:24:43;;;;;;;4.10;3.30;;;;;;;;;;5079469;28;20490;-70
2023/07/31 10:27:10;;;;;;;3.50;2.67;;;;;;;;;;5080343;28;20513;-69
2023/07/31 10:29:37;;;;;;;4.23;3.20;;;;;;;;;;5079096;28;20488;-70
2023/07/31 10:32:06;;;;;;;3.20;2.50;;;;;;;;;;5079985;28;20490;-70
2023/07/31 10:34:35;;;;;;;4.50;2.73;;;;;;;;;;5080319;28;20460;-70
2023/07/31 10:37:20;;;;;;;2.97;2.20;;;;;;;;;;5077476;28;20535;-70
2023/07/31 10:39:55;;;;;;;3.37;2.30;;;;;;;;;;5071493;28;20456;-69
2023/07/31 10:42:28;;;;;;;2.73;1.70;;;;;;;;;;5080002;28;20475;-70
2023/07/31 10:44:56;;;;;;;1.90;1.70;;;;;;;;;;5078398;28;20721;-70
2023/07/31 10:47:22;;;;;;;2.20;2.00;;;;;;;;;;5075753;28;20459;-69
2023/07/31 10:49:50;;;;;;;2.57;2.00;;;;;;;;;;5079492;28;20518;-69
2023/07/31 10:52:22;;;;;;;2.00;1.80;;;;;;;;;;5078479;28;20490;-69
2023/07/31 10:54:48;;;;;;;2.37;1.67;;;;;;;;;;5071972;28;20519;-69
2023/07/31 10:57:21;;;;;;;2.20;1.90;;;;;;;;;;5078056;28;20562;-70
2023/07/31 10:59:48;;;;;;;2.50;1.70;;;;;;;;;;5077565;28;20541;-65
2023/07/31 11:02:25;;;;;;;2.40;2.20;;;;;;;;;;5074640;28;20471;-65
2023/07/31 11:07:50;;;;;;;2.10;1.63;;;;;;;;;;5148678;27;20547;-63
2023/07/31 11:10:20;;;;;;;2.37;1.90;;;;;;;;;;5134264;28;20710;-64
2023/07/31 11:12:46;;;;;;;2.03;1.50;;;;;;;;;;5134273;27;20459;-64
2023/07/31 11:15:12;;;;;;;1.80;1.70;;;;;;;;;;5135379;27;20465;-64
2023/07/31 11:17:39;;;;;;;2.40;1.90;;;;;;;;;;5134432;27;21019;-64
2023/07/31 11:20:07;;;;;;;1.67;1.57;;;;;;;;;;5129074;28;20521;-64
2023/07/31 11:22:33;;;;;;;2.00;1.80;;;;;;;;;;5128266;28;20482;-63
2023/07/31 11:25:01;;;;;;;2.33;2.00;;;;;;;;;;5135349;27;20851;-63
2023/07/31 11:27:28;;;;;;;3.00;1.77;;;;;;;;;;5132443;28;20489;-64
2023/07/31 11:30:00;;;;;;;2.60;1.90;;;;;;;;;;5136257;28;20446;-64
2023/07/31 11:32:27;;;;;;;3.27;2.03;;;;;;;;;;5123895;28;20450;-64
2023/07/31 11:34:53;;;;;;;1.97;1.77;;;;;;;;;;5115328;28;20439;-64
2023/07/31 11:37:20;;;;;;;2.20;2.00;;;;;;;;;;5115025;28;20816;-64
2023/07/31 11:39:59;;;;;;;2.70;1.80;;;;;;;;;;5114679;28;20443;-63
2023/07/31 11:42:26;;;;;;;2.50;2.30;;;;;;;;;;5113387;28;20508;-63
2023/07/31 11:44:53;;;;;;;2.50;1.90;;;;;;;;;;5112114;28;20671;-63
2023/07/31 11:47:20;;;;;;;2.23;2.03;;;;;;;;;;5117254;28;20489;-63
2023/07/31 11:49:47;;;;;;;1.93;1.73;;;;;;;;;;5114418;28;20848;-63
2023/07/31 11:52:13;;;;;;;3.97;1.83;;;;;;;;;;5112522;28;20499;-63
2023/07/31 11:54:41;;;;;;;1.70;1.60;;;;;;;;;;5111886;28;20865;-63
2023/07/31 11:57:08;;;;;;;1.50;1.40;;;;;;;;;;5106579;28;20466;-64
2023/07/31 11:59:35;;;;;;;2.07;1.70;;;;;;;;;;5113119;28;20485;-64
2023/07/31 12:02:02;;;;;;;1.70;1.43;;;;;;;;;;5112033;28;20462;-64
2023/07/31 12:04:28;;;;;;;1.93;1.77;;;;;;;;;;5106778;28;20480;-66
2023/07/31 12:06:55;;;;;;;1.70;1.43;;;;;;;;;;5105314;28;20933;-65
2023/07/31 12:09:21;;;;;;;1.90;1.37;;;;;;;;;;5105934;28;20450;-65
2023/07/31 12:11:48;;;;;;;1.80;1.60;;;;;;;;;;5108108;28;20450;-66
2023/07/31 12:14:22;;;;;;;2.40;1.90;;;;;;;;;;5102354;28;20525;-65
2023/07/31 12:16:53;;;;;;;1.77;1.60;;;;;;;;;;5102930;28;20799;-65
2023/07/31 12:19:20;;;;;;;2.63;1.67;;;;;;;;;;5085654;28;20554;-65
2023/07/31 12:21:46;;;;;;;1.30;1.20;;;;;;;;;;5095067;28;20504;-65
2023/07/31 12:24:13;;;;;;;1.97;1.63;;;;;;;;;;5097091;28;20470;-65
2023/07/31 12:26:39;;;;;;;1.17;1.07;;;;;;;;;;5088902;28;20501;-65
2023/07/31 12:29:07;;;;;;;3.30;1.43;;;;;;;;;;5082540;28;20448;-65
2023/07/31 12:31:34;;;;;;;2.03;1.40;;;;;;;;;;5089818;28;20542;-65
2023/07/31 12:34:03;;;;;;;1.20;1.07;;;;;;;;;;5093393;28;20451;-65
2023/07/31 12:36:30;;;;;;;1.40;1.30;;;;;;;;;;5085776;28;20447;-65
2023/07/31 12:38:58;;;;;;;1.53;1.37;;;;;;;;;;5092980;28;20578;-65
2023/07/31 12:41:25;;;;;;;2.27;1.40;;;;;;;;;;5094357;28;20585;-65
2023/07/31 12:43:51;;;;;;;1.73;1.63;;;;;;;;;;5092206;28;20515;-65
2023/07/31 12:46:18;;;;;;;2.17;1.60;;;;;;;;;;5092851;28;20797;-65
2023/07/31 12:48:44;;;;;;;2.07;1.60;;;;;;;;;;5093225;28;20470;-65
2023/07/31 12:51:12;;;;;;;1.87;1.77;;;;;;;;;;5092056;28;20455;-64
2023/07/31 12:53:38;;;;;;;2.00;1.80;;;;;;;;;;5094617;28;20477;-65
2023/07/31 12:56:05;;;;;;;4.00;2.57;;;;;;;;;;5091452;28;20478;-65
2023/07/31 12:58:31;;;;;;;3.80;2.90;;;;;;;;;;5093721;28;20467;-65
2023/07/31 13:00:58;;;;;;;3.80;3.47;;;;;;;;;;5092418;28;20548;-65
2023/07/31 13:03:24;;;;;;;5.07;3.73;;;;;;;;;;5093410;28;20452;-65
2023/07/31 13:05:52;;;;;;;5.57;4.40;;;;;;;;;;5093125;28;20510;-65
2023/07/31 13:08:20;;;;;;;5.83;5.23;;;;;;;;;;5093758;28;20455;-64
2023/07/31 13:10:46;;;;;;;6.30;5.80;;;;;;;;;;5100227;28;20458;-64
2023/07/31 13:13:12;;;;;;;8.47;6.07;;;;;;;;;;5099115;28;20451;-64
2023/07/31 13:15:39;;;;;;;8.30;6.37;;;;;;;;;;5099859;28;20506;-65
2023/07/31 13:18:05;;;;;;;6.80;6.10;;;;;;;;;;5098821;28;20459;-64
2023/07/31 13:20:32;;;;;;;6.13;5.53;;;;;;;;;;5101065;28;20495;-64
2023/07/31 13:22:58;;;;;;;6.73;5.30;;;;;;;;;;5098555;28;20447;-65
2023/07/31 13:25:26;;;;;;;7.17;5.90;;;;;;;;;;5104342;28;20505;-63
2023/07/31 13:27:52;;;;;;;5.47;5.03;;;;;;;;;;5095059;28;20503;-64
2023/07/31 13:30:19;;;;;;;5.27;4.50;;;;;;;;;;5101294;28;20546;-63
2023/07/31 13:32:45;;;;;;;5.13;4.63;;;;;;;;;;5099508;28;20623;-63
2023/07/31 13:35:12;;;;;;;4.90;4.23;;;;;;;;;;5103046;28;20478;-64
2023/07/31 13:37:38;;;;;;;4.10;3.80;;;;;;;;;;5102662;28;20462;-64
2023/07/31 13:40:05;;;;;;;4.90;4.40;;;;;;;;;;5103873;28;20443;-64
2023/07/31 13:42:33;;;;;;;4.97;4.17;;;;;;;;;;5098506;28;20458;-63
2023/07/31 13:45:00;;;;;;;5.60;4.57;;;;;;;;;;5094934;28;20475;-64
2023/07/31 13:47:26;;;;;;;7.33;5.10;;;;;;;;;;5101809;28;20518;-63
2023/07/31 13:49:53;;;;;;;4.70;4.30;;;;;;;;;;5104474;28;20478;-64
2023/07/31 13:52:19;;;;;;;4.10;3.70;;;;;;;;;;5105555;28;20435;-64
2023/07/31 13:54:45;;;;;;;4.63;3.90;;;;;;;;;;5098452;28;20467;-63
2023/07/31 13:57:12;;;;;;;5.10;4.60;;;;;;;;;;5101117;28;20975;-64
2023/07/31 13:59:39;;;;;;;4.20;3.80;;;;;;;;;;5099136;28;20474;-64
2023/07/31 14:02:06;;;;;;;4.70;4.30;;;;;;;;;;5100888;28;20523;-63
2023/07/31 14:04:33;;;;;;;7.03;5.00;;;;;;;;;;5101538;28;20467;-63
2023/07/31 14:06:59;;;;;;;7.63;5.00;;;;;;;;;;5096607;28;20553;-63
2023/07/31 14:09:26;;;;;;;5.17;4.60;;;;;;;;;;5098817;28;21018;-63
2023/07/31 14:11:53;;;;;;;5.67;4.53;;;;;;;;;;5098662;28;20508;-64
2023/07/31 14:14:19;;;;;;;5.33;4.83;;;;;;;;;;5098284;28;20481;-62
2023/07/31 14:16:47;;;;;;;7.17;4.90;;;;;;;;;;5099220;28;20477;-62
2023/07/31 14:19:13;;;;;;;4.93;4.43;;;;;;;;;;5097495;28;20473;-62
2023/07/31 14:21:40;;;;;;;5.57;5.00;;;;;;;;;;5099072;28;20459;-62
2023/07/31 14:24:06;;;;;;;4.47;4.10;;;;;;;;;;5099078;28;21583;-62
2023/07/31 14:26:33;;;;;;;5.07;4.63;;;;;;;;;;5097394;28;20524;-62
2023/07/31 14:28:59;;;;;;;5.33;4.83;;;;;;;;;;5098735;28;20451;-61
2023/07/31 14:31:25;;;;;;;6.20;4.90;;;;;;;;;;5093728;28;20494;-62
2023/07/31 14:33:53;;;;;;;4.80;4.00;;;;;;;;;;5093626;28;20779;-62
2023/07/31 14:36:20;;;;;;;4.50;4.10;;;;;;;;;;5094632;28;20463;-62
2023/07/31 14:38:46;;;;;;;6.53;4.40;;;;;;;;;;5094274;28;20482;-62
2023/07/31 14:41:12;;;;;;;5.70;5.10;;;;;;;;;;5097462;28;20825;-62